Time;durP1;ratioP1;P1;durP2;ratioP2;P2;SDS_P1;SDS_P2;PMS_P1;PMS_P2;Temp;Humidity;BMP_temperature;BMP_pressure;BME280_temperature;BME280_humidity;BME280_pressure;Samples;Min_cycle;Max_cycle;Signal;HPM_P1;HPM_P2
2021/03/08 00:00:18;;;;;;;17.38;9.70;;;3.30;99.90;;;;;;5008189;28;20180;-78
2021/03/08 00:02:45;;;;;;;44.83;19.75;;;3.20;99.90;;;;;;5001491;28;20116;-77
2021/03/08 00:05:12;;;;;;;38.40;16.65;;;3.40;99.90;;;;;;5007696;28;20165;-78
2021/03/08 00:07:38;;;;;;;22.85;11.05;;;3.60;99.90;;;;;;5000820;28;20074;-77
2021/03/08 00:10:05;;;;;;;17.30;9.52;;;3.40;99.90;;;;;;5007999;28;20082;-78
2021/03/08 00:12:31;;;;;;;23.90;12.10;;;3.40;99.90;;;;;;4992334;28;20098;-78
2021/03/08 00:14:57;;;;;;;18.60;9.32;;;3.60;99.90;;;;;;5012403;28;20549;-78
2021/03/08 00:17:23;;;;;;;15.05;9.45;;;3.60;99.90;;;;;;4999472;28;20101;-77
2021/03/08 00:19:49;;;;;;;20.40;10.57;;;3.60;99.90;;;;;;4998555;28;20102;-77
2021/03/08 00:22:14;;;;;;;15.00;9.05;;;3.60;99.90;;;;;;4992667;28;20078;-78
2021/03/08 00:24:40;;;;;;;15.15;8.07;;;3.50;99.90;;;;;;4995471;28;20163;-77
2021/03/08 00:27:06;;;;;;;15.35;8.40;;;3.40;99.90;;;;;;4993203;28;20477;-78
2021/03/08 00:29:32;;;;;;;13.63;7.22;;;3.40;99.90;;;;;;4995101;28;20097;-77
2021/03/08 00:31:58;;;;;;;14.60;8.15;;;3.30;99.90;;;;;;4995344;28;20085;-77
2021/03/08 00:34:23;;;;;;;15.02;8.57;;;3.20;99.90;;;;;;5008949;28;20092;-77
2021/03/08 00:36:50;;;;;;;12.40;7.43;;;3.50;99.90;;;;;;5011303;28;20109;-77
2021/03/08 00:39:15;;;;;;;14.73;8.45;;;3.70;99.90;;;;;;5007928;28;20149;-77
2021/03/08 00:41:41;;;;;;;16.58;8.13;;;3.70;99.90;;;;;;5003107;28;20082;-77
2021/03/08 00:44:07;;;;;;;16.83;8.52;;;3.60;99.90;;;;;;5004686;28;20078;-79
2021/03/08 00:46:34;;;;;;;15.90;8.70;;;3.60;99.90;;;;;;5011165;28;20455;-79
2021/03/08 00:49:00;;;;;;;19.00;10.48;;;3.60;99.90;;;;;;5012091;28;20192;-78
2021/03/08 00:51:26;;;;;;;14.48;9.75;;;3.60;99.90;;;;;;5003518;28;20172;-78
2021/03/08 00:53:51;;;;;;;17.02;9.52;;;3.80;99.90;;;;;;4992465;28;20078;-78
2021/03/08 00:56:17;;;;;;;12.23;8.75;;;3.60;99.90;;;;;;5024057;28;20174;-78
2021/03/08 00:58:43;;;;;;;16.10;8.13;;;3.20;99.90;;;;;;5003900;28;20480;-77
2021/03/08 01:01:08;;;;;;;16.85;8.93;;;3.20;99.90;;;;;;4995585;28;20093;-77
2021/03/08 01:03:34;;;;;;;16.92;9.05;;;3.10;99.90;;;;;;4998968;28;20541;-77
2021/03/08 01:06:00;;;;;;;15.10;8.70;;;3.00;99.90;;;;;;5013010;28;20169;-77
2021/03/08 01:08:25;;;;;;;11.75;7.50;;;2.90;99.90;;;;;;5011516;28;20437;-77
2021/03/08 01:10:51;;;;;;;18.45;8.75;;;3.00;99.90;;;;;;5009337;28;20085;-77
2021/03/08 01:13:17;;;;;;;13.77;8.65;;;2.90;99.90;;;;;;5010364;28;20069;-77
2021/03/08 01:15:45;;;;;;;15.52;8.95;;;2.90;99.90;;;;;;5025432;28;20104;-77
2021/03/08 01:18:14;;;;;;;16.73;9.82;;;3.10;99.90;;;;;;4995815;28;20120;-78
2021/03/08 01:20:39;;;;;;;15.95;8.98;;;3.30;99.90;;;;;;4996720;28;20468;-77
2021/03/08 01:23:05;;;;;;;19.08;9.73;;;3.20;99.90;;;;;;4991836;28;20078;-78
2021/03/08 01:25:31;;;;;;;16.77;8.82;;;3.10;99.90;;;;;;5004713;28;20125;-77
2021/03/08 01:27:57;;;;;;;14.18;8.98;;;2.90;99.90;;;;;;5009585;28;20077;-77
2021/03/08 01:30:31;;;;;;;16.88;10.40;;;2.90;99.90;;;;;;5007432;28;20169;-78
2021/03/08 01:33:01;;;;;;;16.23;9.50;;;3.00;99.90;;;;;;5007134;28;20112;-78
2021/03/08 01:35:34;;;;;;;16.77;10.05;;;3.20;99.90;;;;;;5012465;28;20075;-78
2021/03/08 01:38:09;;;;;;;14.77;8.18;;;3.30;99.90;;;;;;5017439;28;20091;-77
2021/03/08 01:40:39;;;;;;;13.27;8.23;;;3.20;99.90;;;;;;5009178;28;20082;-78
2021/03/08 01:43:05;;;;;;;14.73;8.13;;;3.00;99.90;;;;;;4997784;28;20185;-77
2021/03/08 01:45:31;;;;;;;14.25;7.88;;;2.90;99.90;;;;;;5010836;28;20078;-77
2021/03/08 01:47:57;;;;;;;12.82;8.40;;;2.70;99.90;;;;;;5014738;28;20109;-77
2021/03/08 01:50:34;;;;;;;16.83;9.57;;;2.90;99.90;;;;;;5002436;28;20564;-77
2021/03/08 01:53:01;;;;;;;12.52;7.35;;;2.90;99.90;;;;;;5011068;28;20074;-77
2021/03/08 01:55:27;;;;;;;17.15;9.43;;;2.50;99.90;;;;;;5012171;28;20079;-77
2021/03/08 01:57:53;;;;;;;14.07;9.30;;;2.30;99.90;;;;;;5006863;28;20848;-77
2021/03/08 02:00:20;;;;;;;25.23;12.77;;;2.30;99.90;;;;;;5000103;28;20101;-77
2021/03/08 02:02:46;;;;;;;14.70;9.43;;;2.20;99.90;;;;;;5000735;28;20078;-77
2021/03/08 02:05:17;;;;;;;13.93;8.45;;;2.10;99.90;;;;;;4998140;28;20543;-77
2021/03/08 02:07:44;;;;;;;16.30;9.68;;;1.90;99.90;;;;;;5013412;28;20571;-77
2021/03/08 02:10:12;;;;;;;21.63;11.32;;;2.00;99.90;;;;;;5010316;28;20082;-77
2021/03/08 02:12:44;;;;;;;15.25;9.40;;;2.10;99.90;;;;;;5005392;28;20078;-77
2021/03/08 02:15:37;;;;;;;17.42;9.95;;;1.90;99.90;;;;;;5012951;28;20078;-77
2021/03/08 02:18:13;;;;;;;15.13;9.15;;;1.90;99.90;;;;;;5010955;28;20074;-77
2021/03/08 02:20:55;;;;;;;17.98;10.45;;;2.00;99.90;;;;;;4995191;28;20213;-77
2021/03/08 02:23:58;;;;;;;22.30;11.30;;;2.00;99.90;;;;;;5016338;28;20082;-77
2021/03/08 02:26:32;;;;;;;16.00;9.52;;;1.60;99.90;;;;;;5013558;28;20220;-77
2021/03/08 02:29:35;;;;;;;16.92;9.05;;;1.40;99.90;;;;;;4999084;28;20432;-79
2021/03/08 02:32:05;;;;;;;18.02;9.18;;;1.60;99.90;;;;;;4996391;28;20078;-78
2021/03/08 02:34:37;;;;;;;17.50;8.93;;;1.90;99.90;;;;;;5012924;28;20078;-78
2021/03/08 02:37:12;;;;;;;15.48;9.18;;;1.90;99.90;;;;;;4995786;28;20587;-78
2021/03/08 02:39:40;;;;;;;;;;;2.00;99.90;;;;;;5017493;28;20187;-78
2021/03/08 02:42:11;;;;;;;20.98;11.43;;;1.90;99.90;;;;;;5013858;28;20401;-78
2021/03/08 02:44:39;;;;;;;22.73;11.48;;;1.80;99.90;;;;;;5009869;28;20079;-78
2021/03/08 02:47:05;;;;;;;19.08;10.48;;;2.00;99.90;;;;;;5031527;28;20102;-79
2021/03/08 02:49:34;;;;;;;19.95;11.18;;;2.20;99.90;;;;;;5015348;28;20077;-78
2021/03/08 02:52:02;;;;;;;16.40;8.73;;;1.90;99.90;;;;;;5003855;28;20085;-78
2021/03/08 02:54:32;;;;;;;19.10;10.23;;;2.00;99.90;;;;;;5011800;28;20082;-78
2021/03/08 02:57:02;;;;;;;18.67;9.50;;;1.70;99.90;;;;;;5013840;28;20205;-78
2021/03/08 02:59:31;;;;;;;26.30;11.40;;;1.90;99.90;;;;;;5022100;28;20125;-78
2021/03/08 03:01:58;;;;;;;17.13;10.45;;;2.00;99.90;;;;;;5001563;28;20082;-79
2021/03/08 03:04:25;;;;;;;16.85;9.73;;;1.70;99.90;;;;;;5010755;28;20081;-77
2021/03/08 03:06:52;;;;;;;18.67;10.85;;;1.80;99.90;;;;;;5008367;28;20690;-79
2021/03/08 03:09:21;;;;;;;16.45;9.93;;;1.90;99.90;;;;;;5011088;28;20116;-78
2021/03/08 03:11:58;;;;;;;16.40;10.23;;;1.90;99.90;;;;;;5002718;28;20608;-78
2021/03/08 03:14:25;;;;;;;21.38;11.35;;;2.00;99.90;;;;;;5000025;28;20085;-78
2021/03/08 03:16:56;;;;;;;17.70;10.70;;;1.80;99.90;;;;;;4998016;28;20110;-78
2021/03/08 03:19:23;;;;;;;17.15;10.48;;;1.80;99.90;;;;;;5012105;28;20144;-77
2021/03/08 03:21:51;;;;;;;19.33;11.30;;;1.90;99.90;;;;;;5024985;28;20074;-78
2021/03/08 03:24:16;;;;;;;17.55;11.00;;;1.90;99.90;;;;;;5012856;28;20084;-78
2021/03/08 03:26:43;;;;;;;23.25;12.27;;;1.90;99.90;;;;;;4996398;28;20095;-78
2021/03/08 03:29:09;;;;;;;20.33;11.68;;;1.80;99.90;;;;;;5012612;28;20114;-78
2021/03/08 03:31:38;;;;;;;19.00;10.32;;;1.90;99.90;;;;;;5012038;28;20078;-80
2021/03/08 03:34:05;;;;;;;18.95;11.27;;;1.90;99.90;;;;;;4998438;28;20117;-80
2021/03/08 03:36:34;;;;;;;18.33;10.55;;;2.00;99.90;;;;;;5007309;28;20177;-78
2021/03/08 03:39:01;;;;;;;16.30;9.63;;;1.70;99.90;;;;;;5011551;28;20579;-78
2021/03/08 03:41:27;;;;;;;16.75;10.27;;;1.30;99.90;;;;;;5011544;28;20141;-79
2021/03/08 03:43:53;;;;;;;18.80;10.20;;;1.20;99.90;;;;;;5011018;28;20664;-79
2021/03/08 03:46:19;;;;;;;20.38;11.60;;;1.50;99.90;;;;;;5012663;28;20086;-78
2021/03/08 03:48:45;;;;;;;20.23;10.82;;;1.70;99.90;;;;;;5009507;28;20070;-79
2021/03/08 03:51:11;;;;;;;21.88;11.48;;;1.80;99.90;;;;;;4978103;28;20129;-78
2021/03/08 03:53:39;;;;;;;16.85;10.50;;;1.70;99.90;;;;;;5004060;28;20113;-79
2021/03/08 03:56:13;;;;;;;18.15;11.25;;;1.50;99.90;;;;;;5011518;28;20193;-79
2021/03/08 03:59:13;;;;;;;17.77;10.75;;;1.50;99.90;;;;;;5008375;28;20166;-79
2021/03/08 04:01:43;;;;;;;18.17;10.02;;;1.40;99.90;;;;;;4994032;28;20086;-79
2021/03/08 04:04:17;;;;;;;16.65;10.00;;;1.00;99.90;;;;;;4997336;28;20077;-79
2021/03/08 04:06:48;;;;;;;20.45;10.43;;;1.00;99.90;;;;;;4998475;28;20093;-78
2021/03/08 04:09:17;;;;;;;17.90;10.38;;;1.00;99.90;;;;;;5012521;28;20078;-78
2021/03/08 04:11:44;;;;;;;19.88;11.43;;;0.70;99.90;;;;;;4994655;28;20169;-78
2021/03/08 04:14:16;;;;;;;17.65;10.82;;;0.50;99.90;;;;;;5006682;28;20098;-78
2021/03/08 04:16:47;;;;;;;17.65;11.35;;;0.50;99.90;;;;;;4994187;28;20133;-78
2021/03/08 04:19:15;;;;;;;18.67;11.10;;;0.60;99.90;;;;;;5001113;28;20086;-78
2021/03/08 04:21:41;;;;;;;20.25;10.88;;;0.70;99.90;;;;;;4999155;28;20109;-78
2021/03/08 04:24:10;;;;;;;18.85;11.95;;;0.70;99.90;;;;;;5010996;28;20082;-79
2021/03/08 04:26:38;;;;;;;19.60;11.65;;;0.50;99.90;;;;;;5019642;28;20173;-78
2021/03/08 04:29:08;;;;;;;21.77;12.68;;;0.60;99.90;;;;;;5003015;28;20125;-78
2021/03/08 04:31:35;;;;;;;21.83;12.25;;;0.60;99.90;;;;;;4992089;28;20124;-79
2021/03/08 04:34:02;;;;;;;19.10;10.77;;;0.70;99.90;;;;;;5027926;28;20204;-79
2021/03/08 04:36:29;;;;;;;18.67;11.10;;;0.70;99.90;;;;;;5005591;28;20094;-79
2021/03/08 04:38:55;;;;;;;19.35;11.02;;;0.60;99.90;;;;;;4998686;28;20630;-79
2021/03/08 04:41:25;;;;;;;20.92;10.90;;;0.70;99.90;;;;;;5003089;28;20078;-79
2021/03/08 04:43:51;;;;;;;20.15;11.38;;;0.60;99.90;;;;;;5009872;28;20082;-79
2021/03/08 04:46:17;;;;;;;16.85;10.20;;;0.60;99.90;;;;;;5006283;28;20122;-79
2021/03/08 04:48:43;;;;;;;19.75;11.02;;;0.70;99.90;;;;;;5005090;28;20758;-79
2021/03/08 04:51:10;;;;;;;19.65;11.80;;;0.80;99.90;;;;;;5012209;28;20428;-77
2021/03/08 04:53:36;;;;;;;17.67;10.82;;;-0.30;99.90;;;;;;5024452;28;20073;-78
2021/03/08 04:56:03;;;;;;;20.63;12.13;;;-0.10;99.90;;;;;;5012088;28;20099;-78
2021/03/08 04:58:30;;;;;;;21.95;11.30;;;-0.40;99.90;;;;;;5012272;28;20181;-78
2021/03/08 05:00:56;;;;;;;22.20;11.77;;;-0.20;99.90;;;;;;5014633;28;20075;-78
2021/03/08 05:03:24;;;;;;;19.73;11.93;;;0.00;99.90;;;;;;5009590;28;20084;-78
2021/03/08 05:05:52;;;;;;;22.25;11.80;;;0.10;99.90;;;;;;5009155;28;20141;-78
2021/03/08 05:08:20;;;;;;;22.80;12.38;;;0.20;99.90;;;;;;5009351;28;20083;-78
2021/03/08 05:10:50;;;;;;;20.92;12.68;;;0.30;99.90;;;;;;5010353;28;20075;-78
2021/03/08 05:13:17;;;;;;;21.73;12.60;;;0.20;99.90;;;;;;5010842;28;20085;-77
2021/03/08 05:15:44;;;;;;;19.13;10.80;;;0.00;99.90;;;;;;5010143;28;20112;-79
2021/03/08 05:18:11;;;;;;;20.13;11.52;;;0.10;99.90;;;;;;5006947;28;20078;-78
2021/03/08 05:20:37;;;;;;;20.35;10.88;;;0.00;99.90;;;;;;5015288;28;20081;-77
2021/03/08 05:23:04;;;;;;;19.83;11.27;;;-0.10;99.90;;;;;;4998288;28;20074;-76
2021/03/08 05:25:31;;;;;;;19.33;11.27;;;0.10;99.90;;;;;;5004224;28;20066;-77
2021/03/08 05:27:58;;;;;;;22.25;12.27;;;0.30;99.90;;;;;;5001706;28;20137;-76
2021/03/08 05:30:25;;;;;;;19.10;12.05;;;0.50;99.90;;;;;;4994589;28;20121;-76
2021/03/08 05:33:16;;;;;;;19.27;11.75;;;0.50;99.90;;;;;;5010500;28;20085;-77
2021/03/08 05:35:43;;;;;;;19.00;10.35;;;0.40;99.90;;;;;;5006529;28;20732;-76
2021/03/08 05:38:09;;;;;;;18.88;11.23;;;0.00;99.90;;;;;;5006132;28;20106;-76
2021/03/08 05:40:46;;;;;;;18.95;11.52;;;0.00;99.90;;;;;;5010876;28;20500;-77
2021/03/08 05:43:14;;;;;;;20.77;11.13;;;-0.70;99.90;;;;;;5014811;28;20083;-77
2021/03/08 05:46:01;;;;;;;19.95;11.15;;;-0.70;99.90;;;;;;5023937;28;20181;-77
2021/03/08 05:48:48;;;;;;;20.52;11.13;;;-0.40;99.90;;;;;;5018440;28;20563;-78
2021/03/08 05:51:35;;;;;;;22.92;13.10;;;-0.20;99.90;;;;;;5005620;28;20078;-78
2021/03/08 05:54:31;;;;;;;20.25;12.45;;;-0.10;99.90;;;;;;5009229;28;20147;-79
2021/03/08 05:57:32;;;;;;;19.02;11.82;;;0.00;99.90;;;;;;5001225;28;20109;-78
2021/03/08 06:00:16;;;;;;;23.85;13.18;;;-0.20;99.90;;;;;;5005735;28;20098;-79
2021/03/08 06:02:47;;;;;;;25.20;13.23;;;-0.60;99.90;;;;;;5004305;28;20181;-78
2021/03/08 06:05:44;;;;;;;24.50;13.35;;;-0.30;99.90;;;;;;5005122;28;20082;-79
2021/03/08 06:08:34;;;;;;;27.88;13.55;;;0.00;99.90;;;;;;5019309;28;20077;-78
2021/03/08 06:11:11;;;;;;;32.63;18.38;;;0.20;99.90;;;;;;5013130;28;20070;-79
2021/03/08 06:13:56;;;;;;;26.17;15.73;;;-0.20;99.90;;;;;;5000888;28;20082;-79
2021/03/08 06:16:35;;;;;;;20.92;11.77;;;-0.50;99.90;;;;;;4994676;28;20196;-79
2021/03/08 06:19:03;;;;;;;21.65;11.98;;;-0.20;99.90;;;;;;4995467;28;20176;-79
2021/03/08 06:21:32;;;;;;;21.85;11.00;;;-0.10;99.90;;;;;;4995225;28;20108;-78
2021/03/08 06:23:58;;;;;;;22.35;13.07;;;0.10;99.90;;;;;;5001099;28;20137;-78
2021/03/08 06:26:26;;;;;;;25.05;13.85;;;0.10;99.90;;;;;;5007620;28;20094;-78
2021/03/08 06:28:52;;;;;;;28.95;14.68;;;0.10;99.90;;;;;;5001684;28;20092;-79
2021/03/08 06:31:21;;;;;;;28.02;14.02;;;0.20;99.90;;;;;;5006552;28;20086;-78
2021/03/08 06:33:47;;;;;;;25.38;14.45;;;-0.10;99.90;;;;;;4999660;28;20113;-80
2021/03/08 06:36:14;;;;;;;26.35;13.43;;;-0.30;99.90;;;;;;5009208;28;20191;-79
2021/03/08 06:38:40;;;;;;;19.90;12.05;;;-0.20;99.90;;;;;;5016246;28;20488;-80
2021/03/08 06:41:08;;;;;;;23.45;12.90;;;-0.20;99.90;;;;;;5007193;28;20078;-79
2021/03/08 06:43:36;;;;;;;21.40;13.45;;;-0.30;99.90;;;;;;5013313;28;20081;-81
2021/03/08 06:46:03;;;;;;;22.25;13.20;;;-0.20;99.90;;;;;;5003481;28;20196;-81
2021/03/08 06:48:30;;;;;;;18.73;13.45;;;-0.20;99.90;;;;;;5017446;28;20070;-79
2021/03/08 06:51:12;;;;;;;23.85;12.90;;;-0.50;99.90;;;;;;5012113;28;20080;-80
2021/03/08 06:53:39;;;;;;;26.08;13.43;;;-0.40;99.90;;;;;;5010724;28;20615;-80
2021/03/08 06:56:16;;;;;;;19.83;11.82;;;-0.10;99.90;;;;;;5014762;28;20086;-80
2021/03/08 06:58:42;;;;;;;19.42;12.70;;;-0.20;99.90;;;;;;5000241;28;20437;-81
2021/03/08 07:01:35;;;;;;;21.85;12.48;;;-0.10;99.90;;;;;;5006658;28;20472;-80
2021/03/08 07:04:02;;;;;;;17.58;11.23;;;0.10;99.90;;;;;;5003963;28;20086;-80
2021/03/08 07:06:28;;;;;;;19.98;12.27;;;0.20;99.90;;;;;;5014356;28;20170;-81
2021/03/08 07:09:05;;;;;;;22.42;13.65;;;0.50;99.90;;;;;;5007875;28;20544;-79
2021/03/08 07:11:31;;;;;;;19.98;12.20;;;0.60;99.90;;;;;;5018054;28;20113;-79
2021/03/08 07:13:59;;;;;;;19.52;11.55;;;0.80;99.90;;;;;;4998046;28;20136;-80
2021/03/08 07:16:36;;;;;;;17.95;11.40;;;0.90;99.90;;;;;;4996471;28;20105;-79
2021/03/08 07:19:02;;;;;;;25.15;11.40;;;0.80;99.90;;;;;;5011811;28;20185;-81
2021/03/08 07:21:28;;;;;;;22.85;12.57;;;1.00;99.90;;;;;;5002373;28;20078;-79
2021/03/08 07:24:06;;;;;;;17.90;11.73;;;1.10;99.90;;;;;;5009492;28;20089;-79
2021/03/08 07:26:32;;;;;;;21.88;12.70;;;1.20;99.90;;;;;;4999419;28;20093;-77
2021/03/08 07:29:27;;;;;;;18.90;11.93;;;1.20;99.90;;;;;;5007197;28;20075;-77
2021/03/08 07:31:54;;;;;;;20.50;11.77;;;0.90;99.90;;;;;;4986297;28;20100;-78
2021/03/08 07:34:20;;;;;;;19.85;12.38;;;1.10;99.90;;;;;;5003188;28;20120;-78
2021/03/08 07:36:58;;;;;;;18.70;11.55;;;1.20;99.90;;;;;;5011068;28;21201;-77
2021/03/08 07:39:25;;;;;;;20.13;12.80;;;1.00;99.90;;;;;;5008608;28;20205;-77
2021/03/08 07:41:53;;;;;;;21.92;13.98;;;1.10;99.90;;;;;;5007036;28;20578;-78
2021/03/08 07:44:21;;;;;;;20.52;12.77;;;1.30;99.90;;;;;;5002312;28;20094;-75
2021/03/08 07:46:47;;;;;;;20.30;12.93;;;1.60;99.90;;;;;;4997745;28;20165;-75
2021/03/08 07:49:13;;;;;;;23.40;13.45;;;1.70;99.90;;;;;;5028325;28;20555;-75
2021/03/08 07:52:00;;;;;;;18.98;12.85;;;1.60;99.90;;;;;;5005432;28;20128;-75
2021/03/08 07:54:25;;;;;;;17.77;12.02;;;1.70;99.90;;;;;;4994487;28;20914;-75
2021/03/08 07:56:52;;;;;;;22.67;13.10;;;1.40;99.90;;;;;;4997557;28;20098;-75
2021/03/08 07:59:20;;;;;;;23.05;12.60;;;1.10;99.90;;;;;;5010895;28;20101;-77
2021/03/08 08:01:46;;;;;;;25.23;13.45;;;1.10;99.90;;;;;;5003032;28;20078;-78
2021/03/08 08:04:11;;;;;;;23.80;14.10;;;1.20;99.90;;;;;;5011249;28;20555;-79
2021/03/08 08:06:37;;;;;;;24.30;13.95;;;1.40;99.90;;;;;;5009062;28;20101;-78
2021/03/08 08:09:04;;;;;;;24.20;13.98;;;1.50;99.90;;;;;;5002576;28;20468;-76
2021/03/08 08:11:30;;;;;;;22.10;13.10;;;1.70;99.90;;;;;;5002284;28;20082;-75
2021/03/08 08:14:00;;;;;;;19.95;11.38;;;1.80;99.90;;;;;;5005892;28;20890;-77
2021/03/08 08:16:30;;;;;;;18.48;11.25;;;1.90;99.90;;;;;;4991873;28;20098;-78
2021/03/08 08:19:04;;;;;;;15.70;10.75;;;2.00;99.90;;;;;;5001402;28;20516;-79
2021/03/08 08:21:37;;;;;;;;;;;1.80;99.90;;;;;;5007900;28;20077;-78
2021/03/08 08:24:26;;;;;;;15.98;10.02;;;1.60;99.90;;;;;;4992298;28;20456;-79
2021/03/08 08:26:57;;;;;;;18.52;10.60;;;1.50;99.90;;;;;;4994157;28;20097;-78
2021/03/08 08:29:27;;;;;;;17.67;11.63;;;1.50;99.90;;;;;;5021555;28;20073;-78
2021/03/08 08:31:59;;;;;;;15.85;11.10;;;1.60;99.90;;;;;;5002070;28;20754;-79
2021/03/08 08:34:44;;;;;;;14.95;9.93;;;1.70;99.90;;;;;;4999305;28;20121;-77
2021/03/08 08:37:15;;;;;;;16.20;10.70;;;1.70;99.90;;;;;;5001579;28;20611;-77
2021/03/08 08:39:53;;;;;;;13.95;10.23;;;1.70;99.90;;;;;;5005914;28;20102;-77
2021/03/08 08:42:19;;;;;;;14.20;9.70;;;1.80;99.90;;;;;;5010575;28;20078;-78
2021/03/08 08:44:50;;;;;;;17.20;10.88;;;1.80;99.90;;;;;;5007338;28;20451;-77
2021/03/08 08:47:42;;;;;;;17.40;9.93;;;1.90;99.90;;;;;;5002862;28;20105;-77
2021/03/08 08:50:09;;;;;;;16.85;9.98;;;1.80;99.90;;;;;;4994968;28;20132;-78
2021/03/08 08:52:54;;;;;;;16.58;9.98;;;1.80;99.90;;;;;;5002314;28;20090;-77
2021/03/08 08:55:41;;;;;;;17.10;9.70;;;1.90;99.90;;;;;;4999873;28;20086;-79
2021/03/08 08:58:30;;;;;;;14.25;9.48;;;1.80;99.90;;;;;;4987986;28;20433;-79
2021/03/08 09:01:09;;;;;;;16.55;10.77;;;1.90;99.90;;;;;;5010458;28;20086;-78
2021/03/08 09:04:01;;;;;;;17.85;10.70;;;2.00;99.90;;;;;;4992202;28;20174;-78
2021/03/08 09:06:47;;;;;;;22.27;10.50;;;2.10;99.90;;;;;;5004061;28;20147;-77
2021/03/08 09:09:23;;;;;;;16.33;11.18;;;2.40;99.90;;;;;;4997608;28;20158;-78
2021/03/08 09:11:55;;;;;;;17.23;10.57;;;2.40;99.90;;;;;;5014265;28;20089;-78
2021/03/08 09:14:46;;;;;;;17.52;10.50;;;2.70;99.90;;;;;;5002803;28;20171;-78
2021/03/08 09:17:15;;;;;;;17.50;11.70;;;2.40;99.90;;;;;;5002429;28;20109;-78
2021/03/08 09:19:50;;;;;;;16.17;10.15;;;2.40;99.90;;;;;;5003471;28;20121;-77
2021/03/08 09:22:22;;;;;;;18.08;10.00;;;2.60;99.90;;;;;;5004831;28;20096;-77
2021/03/08 09:25:26;;;;;;;15.52;10.93;;;2.80;99.90;;;;;;5017210;28;20571;-77
2021/03/08 09:27:58;;;;;;;15.02;9.60;;;2.70;99.90;;;;;;4993511;28;20177;-78
2021/03/08 09:30:27;;;;;;;15.00;10.52;;;2.80;99.90;;;;;;5025970;28;20070;-77
2021/03/08 09:33:01;;;;;;;15.15;9.93;;;2.90;99.90;;;;;;5003597;28;20121;-78
2021/03/08 09:35:30;;;;;;;19.45;11.73;;;2.80;99.90;;;;;;5012314;28;20085;-77
2021/03/08 09:37:59;;;;;;;15.15;11.13;;;2.80;99.90;;;;;;5002897;28;20117;-77
2021/03/08 09:40:33;;;;;;;14.20;10.55;;;2.70;99.90;;;;;;4992289;28;20532;-78
2021/03/08 09:42:59;;;;;;;16.33;11.55;;;3.10;99.90;;;;;;5003681;28;20108;-77
2021/03/08 09:45:30;;;;;;;15.30;10.77;;;3.00;99.90;;;;;;5007820;28;20114;-78
2021/03/08 09:47:58;;;;;;;17.65;10.77;;;3.00;99.90;;;;;;5006234;28;20074;-77
2021/03/08 09:50:32;;;;;;;15.05;10.50;;;2.90;99.90;;;;;;5001623;28;20102;-78
2021/03/08 09:52:59;;;;;;;17.37;10.87;;;3.00;99.90;;;;;;5001189;28;20181;-77
2021/03/08 09:55:27;;;;;;;20.20;10.93;;;3.00;99.90;;;;;;5016488;28;20133;-78
2021/03/08 09:57:53;;;;;;;12.48;8.77;;;3.10;99.90;;;;;;5001904;28;20890;-78
2021/03/08 10:00:27;;;;;;;14.65;9.88;;;3.10;99.90;;;;;;5028306;28;20124;-79
2021/03/08 10:02:58;;;;;;;14.80;10.57;;;3.30;99.90;;;;;;4997216;28;20615;-77
2021/03/08 10:05:44;;;;;;;15.30;9.65;;;3.50;99.90;;;;;;5008299;28;20137;-77
2021/03/08 10:08:11;;;;;;;12.35;8.88;;;3.50;99.90;;;;;;5008260;28;20074;-77
2021/03/08 10:10:49;;;;;;;14.35;8.20;;;3.40;99.90;;;;;;4999857;28;20126;-77
2021/03/08 10:13:15;;;;;;;15.38;10.35;;;3.20;99.90;;;;;;4997876;28;20085;-76
2021/03/08 10:16:04;;;;;;;14.10;8.75;;;3.50;99.90;;;;;;5006082;28;20560;-77
2021/03/08 10:18:31;;;;;;;12.63;8.38;;;3.60;99.90;;;;;;5018497;28;20181;-77
2021/03/08 10:21:03;;;;;;;11.70;8.88;;;3.80;99.90;;;;;;5012310;28;20169;-74
2021/03/08 10:23:30;;;;;;;13.25;8.43;;;3.90;99.90;;;;;;5012979;28;20078;-76
2021/03/08 10:26:10;;;;;;;12.35;7.78;;;3.80;99.90;;;;;;5006659;28;20141;-75
2021/03/08 10:28:40;;;;;;;11.88;8.05;;;3.80;99.90;;;;;;5005289;28;20093;-75
2021/03/08 10:31:15;;;;;;;12.15;8.30;;;3.70;99.90;;;;;;4994533;28;20085;-75
2021/03/08 10:33:44;;;;;;;11.07;8.10;;;3.80;99.90;;;;;;4997856;28;20073;-75
2021/03/08 10:36:10;;;;;;;11.05;7.85;;;3.90;99.90;;;;;;5019273;28;20093;-75
2021/03/08 10:38:36;;;;;;;12.10;8.00;;;3.80;99.70;;;;;;4996763;28;20587;-75
2021/03/08 10:41:04;;;;;;;14.73;9.63;;;3.90;99.90;;;;;;4998196;28;20153;-75
2021/03/08 10:43:31;;;;;;;11.93;8.48;;;4.00;99.90;;;;;;4997871;28;20087;-75
2021/03/08 10:46:00;;;;;;;11.80;9.05;;;3.90;99.30;;;;;;5012650;28;20108;-75
2021/03/08 10:48:27;;;;;;;9.23;7.18;;;3.70;99.90;;;;;;4998382;28;20084;-75
2021/03/08 10:50:57;;;;;;;10.88;7.57;;;3.80;99.90;;;;;;4998770;28;20096;-75
2021/03/08 10:53:24;;;;;;;11.85;7.72;;;3.80;99.90;;;;;;5017842;28;20074;-75
2021/03/08 10:55:51;;;;;;;10.43;8.10;;;3.60;99.90;;;;;;5011814;28;20173;-76
2021/03/08 10:58:32;;;;;;;9.68;7.18;;;3.90;99.90;;;;;;5006808;28;20168;-75
2021/03/08 11:01:09;;;;;;;10.82;7.63;;;4.10;99.60;;;;;;4994889;28;20124;-75
2021/03/08 11:03:41;;;;;;;12.00;7.28;;;3.80;97.80;;;;;;5026873;28;20479;-75
2021/03/08 11:06:09;;;;;;;10.45;7.40;;;3.90;98.60;;;;;;5018475;28;20165;-75
2021/03/08 11:08:38;;;;;;;8.23;6.72;;;4.00;96.00;;;;;;4999118;28;20078;-75
2021/03/08 11:11:18;;;;;;;11.20;7.03;;;3.90;96.30;;;;;;5011237;28;20074;-76
2021/03/08 11:13:44;;;;;;;7.97;6.38;;;4.10;96.40;;;;;;4998580;28;20144;-76
2021/03/08 11:16:12;;;;;;;9.65;7.30;;;4.20;94.40;;;;;;5004461;28;20097;-75
2021/03/08 11:18:38;;;;;;;10.38;7.93;;;4.30;92.20;;;;;;5021799;28;20116;-75
2021/03/08 11:21:20;;;;;;;10.18;7.25;;;4.20;91.30;;;;;;5025772;28;20105;-75
2021/03/08 11:23:46;;;;;;;11.82;7.90;;;4.20;91.50;;;;;;5006255;28;20102;-75
2021/03/08 11:26:12;;;;;;;8.40;5.82;;;4.30;87.70;;;;;;5014034;28;20185;-75
2021/03/08 11:28:39;;;;;;;11.85;6.65;;;4.50;87.40;;;;;;5007407;28;20155;-75
2021/03/08 11:31:05;;;;;;;8.27;6.55;;;4.50;84.50;;;;;;5010411;28;20077;-75
2021/03/08 11:33:36;;;;;;;8.82;6.07;;;4.50;87.80;;;;;;5004951;28;20563;-75
2021/03/08 11:36:02;;;;;;;9.73;5.85;;;4.40;85.50;;;;;;5007242;28;20133;-75
2021/03/08 11:38:28;;;;;;;9.32;6.47;;;4.50;90.50;;;;;;5004289;28;20100;-76
2021/03/08 11:40:55;;;;;;;9.07;6.30;;;4.70;85.70;;;;;;4992904;28;20074;-76
2021/03/08 11:43:23;;;;;;;9.93;6.40;;;4.50;83.40;;;;;;5004234;28;20126;-76
2021/03/08 11:45:50;;;;;;;9.05;6.05;;;4.70;84.70;;;;;;4992654;28;20898;-76
2021/03/08 11:48:19;;;;;;;7.70;5.75;;;4.70;80.10;;;;;;5007890;28;20544;-76
2021/03/08 11:50:45;;;;;;;10.68;6.25;;;4.80;80.70;;;;;;5008086;28;20090;-75
2021/03/08 11:53:11;;;;;;;9.93;5.53;;;4.80;81.90;;;;;;5005443;28;20434;-76
2021/03/08 11:55:36;;;;;;;7.75;5.25;;;4.80;78.80;;;;;;4995885;28;20098;-75
2021/03/08 11:58:02;;;;;;;10.15;6.07;;;4.70;72.70;;;;;;5011455;28;20552;-76
2021/03/08 12:00:28;;;;;;;9.98;5.55;;;5.00;78.50;;;;;;5006326;28;20102;-76
2021/03/08 12:02:54;;;;;;;8.85;6.22;;;4.90;74.10;;;;;;4998962;28;20165;-76
2021/03/08 12:05:20;;;;;;;7.22;4.70;;;5.00;72.40;;;;;;5010464;28;20528;-75
2021/03/08 12:07:46;;;;;;;8.15;4.97;;;5.20;68.60;;;;;;5009386;28;20078;-76
2021/03/08 12:10:14;;;;;;;9.07;4.80;;;5.00;69.50;;;;;;5004910;28;20106;-76
2021/03/08 12:12:40;;;;;;;7.47;5.13;;;5.00;69.80;;;;;;5010086;28;20096;-76
2021/03/08 12:15:08;;;;;;;8.10;5.45;;;4.90;68.30;;;;;;5008061;28;20172;-76
2021/03/08 12:17:35;;;;;;;5.47;4.03;;;4.90;64.60;;;;;;4995074;28;20480;-77
2021/03/08 12:20:02;;;;;;;6.32;4.43;;;5.10;67.40;;;;;;5010541;28;20152;-80
2021/03/08 12:22:28;;;;;;;6.05;4.63;;;5.00;66.40;;;;;;5009565;28;20102;-79
2021/03/08 12:24:54;;;;;;;5.90;4.78;;;5.10;66.40;;;;;;4997070;28;20169;-79
2021/03/08 12:27:19;;;;;;;7.03;4.55;;;5.00;61.90;;;;;;4994936;28;20545;-78
2021/03/08 12:29:45;;;;;;;7.10;4.95;;;5.00;68.10;;;;;;5007620;28;20117;-78
2021/03/08 12:32:11;;;;;;;8.90;5.25;;;5.10;63.60;;;;;;5012801;28;20524;-81
2021/03/08 12:34:36;;;;;;;6.55;4.05;;;5.20;66.20;;;;;;5003900;28;20086;-80
2021/03/08 12:37:03;;;;;;;7.40;4.40;;;5.20;66.10;;;;;;5000800;28;20152;-81
2021/03/08 12:39:29;;;;;;;5.38;3.45;;;5.50;66.80;;;;;;5005645;28;20790;-80
2021/03/08 12:41:55;;;;;;;7.38;4.00;;;5.50;58.60;;;;;;5001628;28;20567;-80
2021/03/08 12:44:20;;;;;;;6.75;4.50;;;5.40;60.00;;;;;;5013254;28;20082;-80
2021/03/08 12:46:47;;;;;;;6.45;4.03;;;5.20;64.20;;;;;;5006573;28;20105;-83
2021/03/08 12:49:13;;;;;;;7.03;4.75;;;5.40;65.80;;;;;;5013316;28;20188;-81
2021/03/08 12:51:38;;;;;;;7.65;4.43;;;5.40;64.70;;;;;;5011793;28;20117;-81
2021/03/08 12:54:04;;;;;;;6.22;4.45;;;5.50;63.70;;;;;;4996007;28;20089;-81
2021/03/08 12:56:30;;;;;;;4.18;3.22;;;5.50;64.90;;;;;;5010953;28;20102;-80
2021/03/08 12:58:55;;;;;;;6.65;3.42;;;5.40;64.30;;;;;;5021124;28;20098;-82